Terminal Aerodrome Forecast
Issued by NWS Bismarck, ND

Home | Current Version | Previous Version | Graphics & Text | Print | Product List | Glossary On
Versions: 1 2 3 4 5 6 7 8 9 10 11 12 13 14 15 16 17 18 19 20 21
000
FTUS43 KBIS 282106 AAB
TAFISN
TAF AMD
KISN 282106Z 2821/2918 11007KT P6SM -RA VCTS SCT040 BKN090CB
      TEMPO 2821/2823 VRB15G25KT 5SM TSRA BKN040CB
     FM290000 28007KT P6SM BKN040
     FM290300 25005KT P6SM FEW250=

USA.gov is the U.S. government's official web portal to all federal, state and local government web resources and services.